Gagetown, Canada
Current Conditions -  °F | °C
As of 2:00 PM on Wednesday 28 Jan 2015 (Local Time) from CYCX Reporting Station
Light Snow Light Snow  
Wind Chill:   Ceiling: 1800
Heat Index: 18°   Visibility: 6mi
Dew Point: 12°   Wind: 10mph
Humidity: 79%   Direction: 360°N
Pressure: 29.79"   Gusts: 17mph
Location:  45.77°N, 66.15°W
Report Text: CYCX 281800Z 36009G15KT 6SM -SN OVC018 M08/M11 A2979 RMK SC8DA-2423FT SLP092
Loading
Personal Weather Stations






























Interactive Weather Map New forecast layout! Learn more

10-Day Weather Forecast

Advertisements
Track Severe Weather on mobile